Time;durP1;ratioP1;P1;durP2;ratioP2;P2;SDS_P1;SDS_P2;PMS_P1;PMS_P2;Temp;Humidity;BMP_temperature;BMP_pressure;BME280_temperature;BME280_humidity;BME280_pressure;Samples;Min_cycle;Max_cycle;Signal;HPM_P1;HPM_P2
2024/01/07 05:07:30;;;;;;;0.32;0.32;;;5.30;99.90;;;;;;4896617;29;20245;-69
2024/01/07 05:09:55;;;;;;;0.30;0.30;;;5.30;99.90;;;;;;4899156;29;20210;-68
2024/01/07 05:12:21;;;;;;;0.30;0.30;;;5.40;99.90;;;;;;4899236;29;20181;-66
2024/01/07 05:14:47;;;;;;;0.40;0.40;;;5.30;99.90;;;;;;4898847;29;20221;-68
2024/01/07 05:17:13;;;;;;;0.50;0.50;;;5.40;99.90;;;;;;4899018;29;20324;-65
2024/01/07 05:19:41;;;;;;;0.30;0.30;;;5.30;99.90;;;;;;4899125;29;20286;-66
2024/01/07 05:22:07;;;;;;;0.30;0.30;;;5.30;99.90;;;;;;4898873;29;20188;-67
2024/01/07 05:24:32;;;;;;;0.50;0.50;;;5.30;99.90;;;;;;4898609;29;20565;-65
2024/01/07 05:26:58;;;;;;;0.40;0.40;;;5.30;99.90;;;;;;4898821;29;20199;-66
2024/01/07 05:29:23;;;;;;;0.30;0.30;;;5.30;99.90;;;;;;4899088;29;20179;-67
2024/01/07 05:31:49;;;;;;;0.40;0.40;;;5.40;99.90;;;;;;4898813;29;20546;-64
2024/01/07 05:34:15;;;;;;;0.30;0.30;;;5.40;99.90;;;;;;4898422;29;20283;-66
2024/01/07 05:36:40;;;;;;;0.30;0.30;;;5.40;99.90;;;;;;4897212;29;20194;-67
2024/01/07 05:39:06;;;;;;;0.40;0.40;;;5.40;99.90;;;;;;4898626;29;20173;-65
2024/01/07 05:41:32;;;;;;;0.30;0.30;;;5.40;99.90;;;;;;4898822;29;20354;-66
2024/01/07 05:43:58;;;;;;;0.30;0.30;;;5.30;99.90;;;;;;4898682;29;20402;-66
2024/01/07 05:46:24;;;;;;;0.30;0.30;;;5.30;99.90;;;;;;4898194;29;20195;-66
2024/01/07 05:48:49;;;;;;;0.50;0.50;;;5.30;99.90;;;;;;4898664;29;20576;-65
2024/01/07 05:51:16;;;;;;;0.47;0.47;;;5.40;99.90;;;;;;4898672;29;20175;-68
2024/01/07 05:53:45;;;;;;;0.30;0.30;;;5.40;99.90;;;;;;4897211;29;20710;-67
2024/01/07 05:56:11;;;;;;;0.30;0.30;;;5.30;99.90;;;;;;4898077;29;20262;-67
2024/01/07 05:58:37;;;;;;;0.30;0.30;;;5.40;99.90;;;;;;4898443;29;20213;-65
2024/01/07 06:01:03;;;;;;;0.30;0.30;;;5.40;99.90;;;;;;4898628;29;20181;-65
2024/01/07 06:03:28;;;;;;;0.30;0.30;;;5.40;99.90;;;;;;4898466;29;20173;-67
2024/01/07 06:05:54;;;;;;;0.30;0.30;;;5.30;99.90;;;;;;4897853;29;20205;-68
2024/01/07 06:08:19;;;;;;;0.40;0.40;;;5.30;99.90;;;;;;4898360;29;20260;-67
2024/01/07 06:10:45;;;;;;;0.30;0.30;;;5.30;99.90;;;;;;4898506;29;20258;-66
2024/01/07 06:13:11;;;;;;;0.30;0.30;;;5.30;99.90;;;;;;4898372;29;20183;-67
2024/01/07 06:15:36;;;;;;;0.30;0.30;;;5.30;99.90;;;;;;4897783;29;20462;-67
2024/01/07 06:18:02;;;;;;;0.30;0.30;;;5.30;99.90;;;;;;4898289;29;20535;-66
2024/01/07 06:20:28;;;;;;;0.40;0.40;;;5.30;99.90;;;;;;4898184;29;20222;-65
2024/01/07 06:22:53;;;;;;;0.40;0.40;;;5.40;99.90;;;;;;4898132;29;20210;-67
2024/01/07 06:25:20;;;;;;;0.50;0.50;;;5.40;99.90;;;;;;4897651;29;20208;-66
2024/01/07 06:27:45;;;;;;;0.30;0.30;;;5.40;99.90;;;;;;4898232;29;20205;-67
2024/01/07 06:30:12;;;;;;;0.40;0.40;;;5.40;99.90;;;;;;4898205;29;20181;-66
2024/01/07 06:32:37;;;;;;;0.30;0.30;;;5.40;99.90;;;;;;4897895;29;20199;-67
2024/01/07 06:35:04;;;;;;;0.30;0.30;;;5.40;99.90;;;;;;4897713;29;20206;-65
2024/01/07 06:37:30;;;;;;;0.63;0.63;;;5.30;99.90;;;;;;4898006;29;20165;-67
2024/01/07 06:39:58;;;;;;;0.30;0.30;;;5.40;99.90;;;;;;4897997;29;20697;-66
2024/01/07 06:42:23;;;;;;;0.30;0.30;;;5.40;99.90;;;;;;4897995;29;20170;-67
2024/01/07 06:44:49;;;;;;;0.30;0.30;;;5.40;99.90;;;;;;4897794;29;20262;-67
2024/01/07 06:47:15;;;;;;;0.40;0.40;;;5.40;99.90;;;;;;4898833;29;20199;-67
2024/01/07 06:49:41;;;;;;;0.30;0.30;;;5.40;99.90;;;;;;4901746;29;20170;-69
2024/01/07 06:52:06;;;;;;;0.30;0.30;;;5.40;99.90;;;;;;4900941;29;20179;-64
2024/01/07 06:54:33;;;;;;;0.40;0.40;;;5.40;99.90;;;;;;4898905;29;20603;-66
2024/01/07 06:56:58;;;;;;;0.30;0.30;;;5.40;99.90;;;;;;4901864;29;20189;-69
2024/01/07 06:59:24;;;;;;;0.30;0.30;;;5.40;99.90;;;;;;4902285;29;20200;-67
2024/01/07 07:01:49;;;;;;;0.30;0.30;;;5.40;99.90;;;;;;4901960;29;20175;-66
2024/01/07 07:04:15;;;;;;;0.57;0.57;;;5.40;99.90;;;;;;4901481;29;20179;-67
2024/01/07 07:06:40;;;;;;;0.30;0.30;;;5.40;99.90;;;;;;4900918;29;20624;-66
2024/01/07 07:09:06;;;;;;;0.30;0.30;;;5.30;99.90;;;;;;4901559;29;20383;-66
2024/01/07 07:11:32;;;;;;;0.30;0.30;;;5.40;99.90;;;;;;4901698;29;20190;-66
2024/01/07 07:13:58;;;;;;;0.30;0.30;;;5.40;99.90;;;;;;4901415;29;20247;-67
2024/01/07 07:16:23;;;;;;;0.40;0.40;;;5.40;99.90;;;;;;4900727;29;20704;-66
2024/01/07 07:18:49;;;;;;;0.40;0.40;;;5.30;99.90;;;;;;4901222;29;20171;-65
2024/01/07 07:21:14;;;;;;;0.30;0.30;;;5.30;99.90;;;;;;4899678;29;20264;-65
2024/01/07 07:23:40;;;;;;;0.30;0.30;;;5.30;99.90;;;;;;4901090;29;20194;-64
2024/01/07 07:26:06;;;;;;;0.30;0.30;;;5.30;99.90;;;;;;4899391;29;20205;-68
2024/01/07 07:28:32;;;;;;;0.35;0.35;;;5.30;99.90;;;;;;4901093;29;20171;-64
2024/01/07 07:30:57;;;;;;;0.40;0.40;;;5.30;99.90;;;;;;4901121;29;20281;-66
2024/01/07 07:33:24;;;;;;;0.30;0.30;;;5.30;99.90;;;;;;4901165;29;20185;-66
2024/01/07 07:35:49;;;;;;;0.30;0.30;;;5.30;99.90;;;;;;4900464;29;20211;-67
2024/01/07 07:38:15;;;;;;;0.30;0.30;;;5.30;99.90;;;;;;4886763;29;20235;-64
2024/01/07 07:40:41;;;;;;;0.40;0.40;;;5.30;99.90;;;;;;4882226;29;20553;-67
2024/01/07 07:43:07;;;;;;;0.57;0.57;;;5.30;99.90;;;;;;4882249;29;20536;-64
2024/01/07 07:45:33;;;;;;;0.32;0.32;;;5.30;99.90;;;;;;4880365;29;20202;-67
2024/01/07 07:47:59;;;;;;;0.30;0.30;;;5.20;99.90;;;;;;4882065;29;20239;-66
2024/01/07 07:50:24;;;;;;;0.43;0.43;;;5.20;99.90;;;;;;4881974;29;20261;-66
2024/01/07 07:52:50;;;;;;;0.30;0.30;;;5.10;99.90;;;;;;4882104;29;20544;-65
2024/01/07 07:55:15;;;;;;;0.30;0.30;;;5.10;99.90;;;;;;4881424;29;20250;-65
2024/01/07 07:57:41;;;;;;;0.40;0.40;;;5.10;99.90;;;;;;4881494;29;20185;-67
2024/01/07 08:00:08;;;;;;;0.30;0.30;;;5.10;99.90;;;;;;4885414;29;20177;-65
2024/01/07 08:02:33;;;;;;;0.40;0.40;;;5.10;99.90;;;;;;4888733;29;20187;-65
2024/01/07 08:04:59;;;;;;;0.50;0.50;;;5.10;99.90;;;;;;4881542;29;20184;-68
2024/01/07 08:07:25;;;;;;;0.57;0.57;;;5.10;99.90;;;;;;4888582;29;20688;-66
2024/01/07 08:09:51;;;;;;;0.30;0.30;;;5.10;99.90;;;;;;4893877;29;20189;-67
2024/01/07 08:12:16;;;;;;;0.43;0.43;;;5.10;99.90;;;;;;4900315;29;20269;-66
2024/01/07 08:14:42;;;;;;;0.40;0.40;;;5.10;99.90;;;;;;4881340;29;20208;-64
2024/01/07 08:17:08;;;;;;;2.00;2.00;;;5.00;99.90;;;;;;4881398;29;20189;-65
2024/01/07 08:19:33;;;;;;;0.40;0.40;;;5.00;99.90;;;;;;4889644;29;20193;-65
2024/01/07 08:21:59;;;;;;;0.30;0.30;;;5.00;99.90;;;;;;4885422;29;20179;-68
2024/01/07 08:24:24;;;;;;;0.30;0.30;;;5.00;99.90;;;;;;4881051;29;20654;-67
2024/01/07 08:26:51;;;;;;;0.30;0.30;;;5.00;99.90;;;;;;4894816;29;20280;-65
2024/01/07 08:29:17;;;;;;;0.30;0.30;;;5.00;99.90;;;;;;4899986;29;20172;-68
2024/01/07 08:31:42;;;;;;;0.30;0.30;;;5.00;99.90;;;;;;4889669;29;20261;-67
2024/01/07 08:34:08;;;;;;;0.50;0.50;;;5.00;99.90;;;;;;4880889;29;20191;-66
2024/01/07 08:36:34;;;;;;;1.13;1.13;;;5.00;99.90;;;;;;4885309;29;20217;-64
2024/01/07 08:39:00;;;;;;;0.30;0.30;;;5.00;99.90;;;;;;4881557;29;20203;-64
2024/01/07 08:41:26;;;;;;;0.30;0.30;;;5.00;99.90;;;;;;4882094;29;20174;-65
2024/01/07 08:43:51;;;;;;;0.30;0.30;;;5.00;99.90;;;;;;4879732;29;20926;-72
2024/01/07 08:46:20;;;;;;;0.50;0.50;;;4.90;99.90;;;;;;4891250;29;20459;-66
2024/01/07 08:48:45;;;;;;;0.30;0.30;;;4.80;99.90;;;;;;4880822;29;20188;-65
2024/01/07 08:51:11;;;;;;;0.30;0.30;;;4.80;99.90;;;;;;4880679;29;20186;-66
2024/01/07 08:53:36;;;;;;;0.40;0.40;;;4.70;99.90;;;;;;4880759;29;20189;-63
2024/01/07 08:56:02;;;;;;;0.30;0.30;;;4.70;99.90;;;;;;4880122;29;20238;-63
2024/01/07 08:58:28;;;;;;;0.40;0.40;;;4.80;99.90;;;;;;4880647;29;20235;-64
2024/01/07 09:00:53;;;;;;;0.40;0.40;;;4.80;99.90;;;;;;4886621;29;20268;-63
2024/01/07 09:03:19;;;;;;;0.40;0.40;;;4.80;99.90;;;;;;4899468;29;20711;-64
2024/01/07 09:05:45;;;;;;;0.30;0.30;;;4.80;99.90;;;;;;4892593;29;20200;-63
2024/01/07 09:08:11;;;;;;;0.30;0.30;;;4.80;99.90;;;;;;4880964;29;20190;-64
2024/01/07 09:10:36;;;;;;;0.30;0.30;;;4.80;99.90;;;;;;4880486;29;20435;-63
2024/01/07 09:13:03;;;;;;;0.30;0.30;;;4.80;99.90;;;;;;4880528;29;20178;-62
2024/01/07 09:15:29;;;;;;;0.30;0.30;;;4.80;99.90;;;;;;4882212;29;20575;-62
2024/01/07 09:17:54;;;;;;;0.40;0.40;;;4.80;99.90;;;;;;4898621;29;20187;-62
2024/01/07 09:20:20;;;;;;;0.30;0.30;;;4.80;99.90;;;;;;4899113;29;20254;-63
2024/01/07 09:22:45;;;;;;;0.30;0.30;;;4.80;99.90;;;;;;4898659;29;20186;-63
2024/01/07 09:25:11;;;;;;;0.70;0.70;;;4.80;99.90;;;;;;4897464;29;20233;-63
2024/01/07 09:27:37;;;;;;;0.40;0.40;;;4.80;99.90;;;;;;4897910;29;20205;-64
2024/01/07 09:30:03;;;;;;;0.40;0.40;;;4.80;99.90;;;;;;4898301;29;20186;-63
2024/01/07 09:32:29;;;;;;;0.32;0.32;;;4.70;99.90;;;;;;4893433;29;20246;-68
2024/01/07 09:34:54;;;;;;;0.40;0.40;;;4.60;99.90;;;;;;4879302;29;20739;-65
2024/01/07 09:37:20;;;;;;;0.40;0.40;;;4.60;99.90;;;;;;4878576;29;20188;-65
2024/01/07 09:39:45;;;;;;;0.40;0.40;;;4.60;99.90;;;;;;4882792;29;20173;-67
2024/01/07 09:42:16;;;;;;;0.30;0.30;;;4.50;99.90;;;;;;4884547;29;20531;-67
2024/01/07 09:44:42;;;;;;;0.40;0.40;;;4.50;99.90;;;;;;4880428;29;20333;-65
2024/01/07 09:47:13;;;;;;;0.55;0.55;;;4.50;99.90;;;;;;4880044;29;20209;-65
2024/01/07 09:49:43;;;;;;;0.40;0.40;;;4.50;99.90;;;;;;4880330;29;20242;-64
2024/01/07 09:52:09;;;;;;;0.38;0.38;;;4.50;99.90;;;;;;4897504;29;20192;-66
2024/01/07 09:54:39;;;;;;;0.40;0.40;;;4.50;99.90;;;;;;4897830;29;20206;-65
2024/01/07 09:57:07;;;;;;;0.40;0.40;;;4.50;99.90;;;;;;4897718;29;20247;-67
2024/01/07 09:59:33;;;;;;;0.30;0.30;;;4.50;99.90;;;;;;4898423;29;20274;-65
2024/01/07 10:01:59;;;;;;;0.30;0.30;;;4.50;99.90;;;;;;4890690;29;20170;-64
2024/01/07 10:04:27;;;;;;;0.30;0.30;;;4.40;99.90;;;;;;4881445;29;20218;-68
2024/01/07 10:06:54;;;;;;;0.35;0.35;;;4.40;99.90;;;;;;4879155;29;20215;-64
2024/01/07 10:09:21;;;;;;;0.30;0.30;;;4.40;99.90;;;;;;4889939;29;20242;-65
2024/01/07 10:11:47;;;;;;;0.30;0.30;;;4.40;99.90;;;;;;4890808;29;20180;-64
2024/01/07 10:14:13;;;;;;;0.30;0.30;;;4.40;99.90;;;;;;4880141;29;20190;-65
2024/01/07 10:16:40;;;;;;;0.30;0.30;;;4.40;99.90;;;;;;4896678;29;20253;-65
2024/01/07 10:19:07;;;;;;;1.20;1.13;;;4.40;99.90;;;;;;4895248;29;20220;-67
2024/01/07 10:21:33;;;;;;;0.30;0.30;;;4.40;99.90;;;;;;4895526;29;20200;-64
2024/01/07 10:24:12;;;;;;;0.30;0.30;;;4.40;99.90;;;;;;4895919;29;20580;-66
2024/01/07 10:26:39;;;;;;;0.40;0.40;;;4.40;99.90;;;;;;4894431;29;20202;-67
2024/01/07 10:29:06;;;;;;;0.40;0.40;;;4.40;99.90;;;;;;4894215;29;20257;-65
2024/01/07 10:31:32;;;;;;;0.30;0.30;;;4.30;99.90;;;;;;4896808;29;20264;-65
2024/01/07 10:33:58;;;;;;;0.30;0.30;;;4.30;99.90;;;;;;4897995;29;20175;-65
2024/01/07 10:36:25;;;;;;;0.30;0.30;;;4.30;99.90;;;;;;4897016;29;20200;-63
2024/01/07 10:38:51;;;;;;;0.30;0.30;;;4.30;99.90;;;;;;4898047;29;20580;-63
2024/01/07 10:41:21;;;;;;;0.50;0.50;;;4.30;99.90;;;;;;4896500;29;20271;-64
2024/01/07 10:43:48;;;;;;;0.30;0.30;;;4.30;99.90;;;;;;4895155;29;20188;-64
2024/01/07 10:46:14;;;;;;;0.30;0.30;;;4.30;99.90;;;;;;4878523;29;20285;-66
2024/01/07 10:48:58;;;;;;;0.40;0.40;;;4.30;99.90;;;;;;4879120;29;20194;-65
2024/01/07 10:51:27;;;;;;;0.30;0.30;;;4.20;99.90;;;;;;4879223;29;20184;-67
2024/01/07 10:53:56;;;;;;;1.95;1.65;;;4.20;99.90;;;;;;4889473;29;20182;-66
2024/01/07 10:56:33;;;;;;;0.30;0.30;;;4.20;99.90;;;;;;4896772;29;20549;-66
2024/01/07 10:58:59;;;;;;;0.30;0.30;;;4.20;99.90;;;;;;4886720;29;20202;-63
2024/01/07 11:01:25;;;;;;;0.30;0.30;;;4.20;99.90;;;;;;4912120;29;20288;-65
2024/01/07 11:04:20;;;;;;;0.30;0.30;;;4.20;99.90;;;;;;4915213;29;20778;-64
2024/01/07 11:07:01;;;;;;;0.40;0.40;;;4.20;99.90;;;;;;4915353;29;20757;-64
2024/01/07 11:09:33;;;;;;;0.30;0.30;;;4.20;99.90;;;;;;4905763;29;20595;-66
2024/01/07 11:11:59;;;;;;;0.47;0.47;;;4.20;99.90;;;;;;4878971;29;20704;-67
2024/01/07 11:14:39;;;;;;;0.43;0.43;;;4.20;99.90;;;;;;4897275;29;20615;-64
2024/01/07 11:17:06;;;;;;;0.40;0.40;;;4.30;99.90;;;;;;4897197;29;20200;-65
2024/01/07 11:19:32;;;;;;;0.30;0.30;;;4.30;99.90;;;;;;4897532;29;20591;-63
2024/01/07 11:22:27;;;;;;;0.40;0.40;;;4.30;99.90;;;;;;4897587;29;20177;-65
2024/01/07 11:24:56;;;;;;;0.30;0.30;;;4.30;99.90;;;;;;4896659;29;20184;-65
2024/01/07 11:27:22;;;;;;;0.30;0.30;;;4.30;99.90;;;;;;4894758;29;20196;-62
2024/01/07 11:30:01;;;;;;;0.38;0.38;;;4.30;99.90;;;;;;4877248;29;20183;-62
2024/01/07 11:32:30;;;;;;;0.50;0.50;;;4.20;99.90;;;;;;4878781;29;20172;-65
2024/01/07 11:34:59;;;;;;;0.30;0.30;;;4.20;99.90;;;;;;4881022;29;20220;-66
2024/01/07 11:37:25;;;;;;;0.50;0.50;;;4.20;99.90;;;;;;4881936;29;20185;-66
2024/01/07 11:39:55;;;;;;;0.30;0.30;;;4.10;99.90;;;;;;4881477;29;20277;-64
2024/01/07 11:42:22;;;;;;;1.73;0.98;;;4.10;99.90;;;;;;4881517;29;20644;-64
2024/01/07 11:44:49;;;;;;;0.38;0.38;;;4.00;99.90;;;;;;4899998;29;20201;-63
2024/01/07 11:47:18;;;;;;;0.40;0.40;;;4.00;99.90;;;;;;4900414;29;20198;-65
2024/01/07 11:49:45;;;;;;;0.50;0.50;;;4.00;99.90;;;;;;4900381;29;20255;-61
2024/01/07 11:52:10;;;;;;;0.30;0.30;;;4.00;99.90;;;;;;4900432;29;20185;-65
2024/01/07 11:54:40;;;;;;;0.40;0.40;;;3.90;99.90;;;;;;4900244;29;20687;-66
2024/01/07 11:57:06;;;;;;;0.40;0.40;;;3.90;99.90;;;;;;4885313;29;20440;-61
2024/01/07 11:59:36;;;;;;;0.45;0.45;;;3.90;99.90;;;;;;4896025;29;20686;-65
2024/01/07 12:02:04;;;;;;;0.30;0.30;;;3.90;99.90;;;;;;4900244;29;20188;-63
2024/01/07 12:04:30;;;;;;;0.40;0.40;;;3.90;99.90;;;;;;4899932;29;20175;-65
2024/01/07 12:06:56;;;;;;;0.50;0.50;;;3.80;99.90;;;;;;4900091;29;20242;-65
2024/01/07 12:09:22;;;;;;;0.30;0.30;;;3.80;99.90;;;;;;4900557;29;20215;-65
2024/01/07 12:11:48;;;;;;;0.40;0.40;;;3.90;99.90;;;;;;4899589;29;20421;-65
2024/01/07 12:14:14;;;;;;;0.30;0.30;;;3.80;99.90;;;;;;4898980;29;20177;-69
2024/01/07 12:16:40;;;;;;;0.40;0.40;;;3.90;99.90;;;;;;4907519;29;20796;-63
2024/01/07 12:19:05;;;;;;;0.40;0.40;;;3.90;99.90;;;;;;4917818;29;20218;-66
2024/01/07 12:21:31;;;;;;;0.40;0.40;;;3.90;99.90;;;;;;4902078;29;20210;-64
2024/01/07 12:23:57;;;;;;;0.40;0.40;;;3.80;99.90;;;;;;4900125;29;20173;-71
2024/01/07 12:26:27;;;;;;;1.17;1.13;;;3.80;99.90;;;;;;4883750;29;20264;-64
2024/01/07 12:28:54;;;;;;;0.40;0.40;;;3.70;99.90;;;;;;4891118;29;20264;-68
2024/01/07 12:31:20;;;;;;;0.30;0.30;;;3.70;99.90;;;;;;4881181;29;20177;-66
2024/01/07 12:33:47;;;;;;;0.30;0.30;;;3.70;99.90;;;;;;4883309;29;20192;-65
2024/01/07 12:36:13;;;;;;;0.40;0.40;;;3.60;99.90;;;;;;4899268;29;20520;-67
2024/01/07 12:38:39;;;;;;;0.93;0.93;;;3.60;99.90;;;;;;4899433;29;20669;-66
2024/01/07 12:41:05;;;;;;;0.40;0.40;;;3.60;99.90;;;;;;4884224;29;20191;-65
2024/01/07 12:43:31;;;;;;;9.35;2.25;;;3.60;99.90;;;;;;4881725;29;20425;-64
2024/01/07 12:45:57;;;;;;;0.40;0.40;;;3.60;99.90;;;;;;4898862;29;20209;-65
2024/01/07 12:48:23;;;;;;;0.40;0.40;;;3.60;99.90;;;;;;4899272;29;20415;-65
2024/01/07 12:50:49;;;;;;;0.40;0.40;;;3.60;99.90;;;;;;4899442;29;20559;-66
2024/01/07 12:53:14;;;;;;;0.50;0.50;;;3.60;99.90;;;;;;4880085;29;20200;-63
2024/01/07 12:55:40;;;;;;;0.40;0.40;;;3.60;99.90;;;;;;4880227;29;20496;-65
2024/01/07 12:58:06;;;;;;;0.30;0.30;;;3.50;99.90;;;;;;4880788;29;20179;-62
2024/01/07 13:00:33;;;;;;;0.30;0.30;;;3.50;99.90;;;;;;4894901;29;20651;-67
2024/01/07 13:02:59;;;;;;;0.30;0.30;;;3.50;99.90;;;;;;4892973;29;20430;-64
2024/01/07 13:05:25;;;;;;;0.40;0.40;;;3.50;99.90;;;;;;4880286;29;20581;-65
2024/01/07 13:07:50;;;;;;;0.43;0.43;;;3.50;99.90;;;;;;4880639;29;20193;-67
2024/01/07 13:10:16;;;;;;;0.30;0.30;;;3.40;99.90;;;;;;4898090;29;20190;-66
2024/01/07 13:12:42;;;;;;;0.30;0.30;;;3.40;99.90;;;;;;4899120;29;20182;-65
2024/01/07 13:15:08;;;;;;;0.82;0.82;;;3.30;99.90;;;;;;4888856;29;20208;-63
2024/01/07 13:17:34;;;;;;;0.40;0.40;;;3.30;99.90;;;;;;4884443;29;20173;-63
2024/01/07 13:20:00;;;;;;;0.50;0.50;;;3.30;99.90;;;;;;4899812;29;20176;-68
2024/01/07 13:22:26;;;;;;;0.30;0.30;;;3.20;99.90;;;;;;4913487;29;20253;-65
2024/01/07 13:24:54;;;;;;;0.40;0.40;;;3.20;99.90;;;;;;4879754;29;20685;-64
2024/01/07 13:27:20;;;;;;;0.30;0.30;;;3.20;99.90;;;;;;4880030;29;20445;-66
2024/01/07 13:29:46;;;;;;;0.40;0.40;;;3.20;99.90;;;;;;4884529;29;20182;-64
2024/01/07 13:32:17;;;;;;;0.43;0.43;;;3.10;99.90;;;;;;4894747;29;20211;-67
2024/01/07 13:34:43;;;;;;;0.30;0.30;;;3.10;99.90;;;;;;4887625;29;20265;-70
2024/01/07 13:37:09;;;;;;;0.30;0.30;;;3.10;99.90;;;;;;4898689;29;20188;-66
2024/01/07 13:39:35;;;;;;;0.50;0.50;;;3.10;99.90;;;;;;4898634;29;20179;-69
2024/01/07 13:42:00;;;;;;;0.50;0.50;;;3.10;99.90;;;;;;4894208;29;20180;-70
2024/01/07 13:44:26;;;;;;;0.50;0.50;;;3.10;99.90;;;;;;4893431;29;20653;-69
2024/01/07 13:46:52;;;;;;;0.40;0.40;;;3.10;99.90;;;;;;4884728;29;20562;-65
2024/01/07 13:49:18;;;;;;;0.50;0.50;;;3.00;99.90;;;;;;4898549;29;20176;-69
2024/01/07 13:51:44;;;;;;;0.40;0.40;;;3.00;99.90;;;;;;4898354;29;20184;-65
2024/01/07 13:54:14;;;;;;;0.40;0.40;;;3.00;99.90;;;;;;4897868;29;20450;-69
2024/01/07 13:56:42;;;;;;;0.40;0.40;;;2.90;99.90;;;;;;4897574;29;20605;-66
2024/01/07 13:59:08;;;;;;;0.50;0.50;;;2.90;99.90;;;;;;4892802;29;20667;-68
2024/01/07 14:01:34;;;;;;;0.45;0.45;;;2.90;99.90;;;;;;4895166;29;20186;-66
2024/01/07 14:04:00;;;;;;;0.30;0.30;;;2.90;99.90;;;;;;4879729;29;20250;-69
2024/01/07 14:06:25;;;;;;;0.30;0.30;;;2.80;99.90;;;;;;4879016;29;20253;-64
2024/01/07 14:08:52;;;;;;;0.50;0.50;;;2.70;99.90;;;;;;4879581;29;20425;-63
2024/01/07 14:11:18;;;;;;;0.40;0.40;;;2.70;99.90;;;;;;4906704;29;20656;-67
2024/01/07 14:13:47;;;;;;;0.40;0.40;;;2.60;99.90;;;;;;4916949;29;20175;-66
2024/01/07 14:16:13;;;;;;;0.30;0.30;;;2.60;99.90;;;;;;4897129;29;20328;-66
2024/01/07 14:18:39;;;;;;;0.50;0.50;;;2.60;99.90;;;;;;4898315;29;20254;-66
2024/01/07 14:21:05;;;;;;;0.30;0.30;;;2.50;99.90;;;;;;4898291;29;20218;-63
2024/01/07 14:23:32;;;;;;;0.50;0.50;;;2.50;99.90;;;;;;4898150;29;20178;-68
2024/01/07 14:25:57;;;;;;;0.40;0.40;;;2.40;99.90;;;;;;4898027;29;20206;-64
2024/01/07 14:28:23;;;;;;;0.40;0.40;;;2.40;99.90;;;;;;4898161;29;20179;-66
2024/01/07 14:30:49;;;;;;;0.50;0.50;;;2.40;99.90;;;;;;4890423;29;20191;-66
2024/01/07 14:33:14;;;;;;;0.60;0.60;;;2.30;99.90;;;;;;4879581;29;20186;-66
2024/01/07 14:35:40;;;;;;;0.47;0.47;;;2.30;99.90;;;;;;4878551;29;20710;-66
2024/01/07 14:38:06;;;;;;;0.40;0.40;;;2.30;99.90;;;;;;4878929;29;20178;-65
2024/01/07 14:40:31;;;;;;;0.40;0.40;;;2.20;99.90;;;;;;4899565;29;20851;-66
2024/01/07 14:42:59;;;;;;;0.40;0.40;;;2.20;99.90;;;;;;4897980;29;20179;-62
2024/01/07 14:45:27;;;;;;;0.30;0.30;;;2.20;99.90;;;;;;4889568;29;20755;-69
2024/01/07 14:47:53;;;;;;;0.40;0.40;;;2.20;99.90;;;;;;4897762;29;20178;-64
2024/01/07 14:50:18;;;;;;;0.38;0.38;;;2.20;99.90;;;;;;4897820;29;20174;-65
2024/01/07 14:52:45;;;;;;;0.43;0.43;;;2.10;99.90;;;;;;4898011;29;20587;-64
2024/01/07 14:55:11;;;;;;;0.30;0.30;;;2.10;99.90;;;;;;4897221;29;20868;-63
2024/01/07 14:57:36;;;;;;;0.40;0.40;;;2.10;99.90;;;;;;4897805;29;20261;-65
2024/01/07 15:00:03;;;;;;;0.50;0.50;;;2.10;99.90;;;;;;4897604;29;20253;-64
2024/01/07 15:02:28;;;;;;;0.30;0.30;;;2.10;99.90;;;;;;4887174;29;20423;-69
2024/01/07 15:04:54;;;;;;;0.50;0.50;;;2.10;99.90;;;;;;4897462;29;20631;-62
2024/01/07 15:07:21;;;;;;;0.43;0.43;;;2.10;99.90;;;;;;4898223;29;20235;-66
2024/01/07 15:09:47;;;;;;;0.30;0.30;;;2.10;99.90;;;;;;4901585;29;20173;-67
2024/01/07 15:12:12;;;;;;;0.40;0.40;;;2.10;99.90;;;;;;4900534;29;20651;-66
2024/01/07 15:14:38;;;;;;;0.40;0.40;;;2.00;99.90;;;;;;4900650;29;20206;-63
2024/01/07 15:17:04;;;;;;;0.40;0.40;;;2.00;99.90;;;;;;4883776;29;20199;-64
2024/01/07 15:19:29;;;;;;;0.40;0.40;;;2.00;99.90;;;;;;4882523;29;20184;-66
2024/01/07 15:21:55;;;;;;;0.40;0.40;;;1.90;99.90;;;;;;4881500;29;20270;-64
2024/01/07 15:24:21;;;;;;;0.30;0.30;;;1.90;99.90;;;;;;4882518;29;20815;-67
2024/01/07 15:26:47;;;;;;;0.30;0.30;;;1.80;99.90;;;;;;4901106;29;20470;-64
2024/01/07 15:29:12;;;;;;;0.40;0.40;;;1.80;99.90;;;;;;4901168;29;20258;-66
2024/01/07 15:31:38;;;;;;;0.40;0.40;;;1.80;99.90;;;;;;4885523;29;20179;-65
2024/01/07 15:34:04;;;;;;;0.40;0.40;;;1.80;99.90;;;;;;4892709;29;20494;-67
2024/01/07 15:36:31;;;;;;;0.40;0.40;;;1.80;99.90;;;;;;4900526;29;20207;-64
2024/01/07 15:38:57;;;;;;;0.55;0.55;;;1.80;99.90;;;;;;4900811;29;20167;-64
2024/01/07 15:41:22;;;;;;;0.30;0.30;;;1.80;99.90;;;;;;4900784;29;20535;-64
2024/01/07 15:43:48;;;;;;;0.50;0.50;;;1.70;99.90;;;;;;4900728;29;20197;-67
2024/01/07 15:46:14;;;;;;;0.30;0.30;;;1.70;99.90;;;;;;4893624;29;20234;-66
2024/01/07 15:48:39;;;;;;;0.30;0.30;;;1.70;99.90;;;;;;4882514;29;20171;-66
2024/01/07 15:51:06;;;;;;;0.47;0.47;;;1.70;99.90;;;;;;4882795;29;20172;-66
2024/01/07 15:53:32;;;;;;;0.50;0.50;;;1.60;99.90;;;;;;4881837;29;20300;-64
2024/01/07 15:56:03;;;;;;;0.40;0.40;;;1.70;99.90;;;;;;4881464;29;20635;-64
2024/01/07 15:58:33;;;;;;;0.40;0.40;;;1.60;99.90;;;;;;4881914;29;20266;-62
2024/01/07 16:01:03;;;;;;;1.20;1.20;;;1.60;99.90;;;;;;4893602;29;20896;-65
2024/01/07 16:03:30;;;;;;;0.40;0.40;;;1.50;99.90;;;;;;4881479;29;20176;-65
2024/01/07 16:05:56;;;;;;;0.40;0.40;;;1.50;99.90;;;;;;4881010;29;20336;-63
2024/01/07 16:08:25;;;;;;;0.30;0.30;;;1.50;99.90;;;;;;4882137;29;20176;-63
2024/01/07 16:10:51;;;;;;;0.40;0.40;;;1.50;99.90;;;;;;4881683;29;20180;-64
2024/01/07 16:13:17;;;;;;;0.40;0.40;;;1.40;99.90;;;;;;4881780;29;20186;-63
2024/01/07 16:15:42;;;;;;;0.40;0.40;;;1.40;99.90;;;;;;4880964;29;20833;-66
2024/01/07 16:18:08;;;;;;;0.50;0.50;;;1.40;99.90;;;;;;4898758;29;20195;-63
2024/01/07 16:20:34;;;;;;;0.40;0.40;;;1.40;99.90;;;;;;4897549;29;20175;-62
2024/01/07 16:23:00;;;;;;;0.30;0.30;;;1.30;99.90;;;;;;4881471;29;20593;-65
2024/01/07 16:25:26;;;;;;;0.40;0.40;;;1.20;99.90;;;;;;4880971;29;20568;-64
2024/01/07 16:27:52;;;;;;;0.40;0.40;;;1.20;99.90;;;;;;4889525;29;20265;-66
2024/01/07 16:30:17;;;;;;;0.33;0.33;;;1.20;99.90;;;;;;4890052;29;20186;-65
2024/01/07 16:32:45;;;;;;;0.50;0.50;;;1.10;99.90;;;;;;4883032;29;20191;-65
2024/01/07 16:35:11;;;;;;;0.30;0.30;;;1.00;99.90;;;;;;4881157;29;20199;-67
2024/01/07 16:37:37;;;;;;;0.40;0.40;;;1.00;99.90;;;;;;4881099;29;20258;-67
2024/01/07 16:40:04;;;;;;;0.40;0.40;;;1.00;99.90;;;;;;4881260;29;20680;-65
2024/01/07 16:42:31;;;;;;;1.42;1.33;;;1.00;99.90;;;;;;4881079;29;20548;-66
2024/01/07 16:44:57;;;;;;;0.40;0.40;;;0.90;99.90;;;;;;4880707;29;20182;-64
2024/01/07 16:47:23;;;;;;;0.38;0.38;;;0.90;99.90;;;;;;4892667;29;20183;-64
2024/01/07 16:49:49;;;;;;;0.70;0.70;;;0.90;99.90;;;;;;4883114;29;20707;-67
2024/01/07 16:52:14;;;;;;;0.40;0.40;;;0.90;99.90;;;;;;4881077;29;20817;-64
2024/01/07 16:54:41;;;;;;;0.40;0.40;;;0.90;99.90;;;;;;4880707;29;20203;-63
2024/01/07 16:57:07;;;;;;;0.40;0.40;;;0.90;99.90;;;;;;4887374;29;20618;-66
2024/01/07 16:59:32;;;;;;;0.40;0.40;;;0.90;99.90;;;;;;4899798;29;20198;-65
2024/01/07 17:01:59;;;;;;;2.23;2.17;;;0.90;99.90;;;;;;4897888;29;20482;-66
2024/01/07 17:04:25;;;;;;;0.40;0.40;;;0.90;99.90;;;;;;4898661;29;20190;-63
2024/01/07 17:06:51;;;;;;;0.50;0.50;;;0.90;99.90;;;;;;4898715;29;20214;-66
2024/01/07 17:09:17;;;;;;;0.40;0.40;;;0.90;99.90;;;;;;4899457;29;20170;-64
2024/01/07 17:11:43;;;;;;;0.40;0.40;;;0.90;99.90;;;;;;4893248;29;20218;-64
2024/01/07 17:14:09;;;;;;;0.40;0.40;;;0.90;99.90;;;;;;4880388;29;20183;-66
2024/01/07 17:16:34;;;;;;;0.40;0.40;;;0.90;99.90;;;;;;4881938;29;20644;-63
2024/01/07 17:19:00;;;;;;;0.30;0.30;;;0.90;99.90;;;;;;4899420;29;20178;-67
2024/01/07 17:21:26;;;;;;;0.43;0.43;;;0.90;99.90;;;;;;4899561;29;20254;-66
2024/01/07 17:23:52;;;;;;;0.53;0.53;;;0.90;99.90;;;;;;4899143;29;20171;-64
2024/01/07 17:26:19;;;;;;;0.60;0.60;;;0.90;99.90;;;;;;4893538;29;20207;-62
2024/01/07 17:28:45;;;;;;;0.40;0.40;;;0.90;99.90;;;;;;4880212;29;20537;-61
2024/01/07 17:31:10;;;;;;;0.45;0.45;;;0.90;99.90;;;;;;4879455;29;20182;-63
2024/01/07 17:33:36;;;;;;;0.40;0.40;;;0.90;99.90;;;;;;4895604;29;20269;-67
2024/01/07 17:36:02;;;;;;;0.30;0.30;;;0.90;99.90;;;;;;4898430;29;20302;-68
2024/01/07 17:38:28;;;;;;;0.40;0.40;;;1.00;99.90;;;;;;4899073;29;20386;-66
2024/01/07 17:40:53;;;;;;;0.40;0.40;;;1.00;99.90;;;;;;4894846;29;20210;-67
2024/01/07 17:43:19;;;;;;;0.30;0.30;;;1.00;99.90;;;;;;4896556;29;20189;-63
2024/01/07 17:45:45;;;;;;;0.40;0.40;;;0.90;99.90;;;;;;4898259;29;20666;-67
2024/01/07 17:48:13;;;;;;;0.40;0.40;;;1.00;99.90;;;;;;4887871;29;20184;-66
2024/01/07 17:50:39;;;;;;;1.40;1.30;;;1.00;99.90;;;;;;4879869;29;20171;-67
2024/01/07 17:53:08;;;;;;;0.60;0.60;;;1.00;99.90;;;;;;4879804;29;20184;-65
2024/01/07 17:55:37;;;;;;;0.40;0.40;;;0.90;99.90;;;;;;4882204;29;20678;-66
2024/01/07 17:58:03;;;;;;;0.47;0.47;;;0.90;99.90;;;;;;4898514;29;20175;-65
2024/01/07 18:00:29;;;;;;;0.30;0.30;;;0.90;99.90;;;;;;4898351;29;20163;-66